x

Yucatan Basin - 120 Nm Ese Of Cozumel, Mx (42056) Wave Buoy

9:50am - Mon 8th Feb 2016 All times are CST. -6 hours from GMT.

  • Sig Wave height 4.3ft
  • Swell Direction
  • Peak Period 9s
  • Average Period 5s
  • Wind
    13mph, 18mph gusts
  • Sea Temp 80°f
  • Air Temp 74°f
  • Sea Pressure 1020.6mb
  •  Yucatan Basin - 120 Nm Ese Of Cozumel, Mx
  •  Yucatan Basin - 120 Nm Ese Of Cozumel, Mx

More Historic Weather Station data

Upgrade to MSW Pro to gain access to the past 30 days of data for over 8000 Wavebouys and Weather Stations around the globe.

Join Pro

Comparision Forecast

View Surf forecast
   
Mon 02/08 9:50am 4.5ft 9s 5s 13 18 mph 1020.6mb 80f 74f
8:50am 4.5ft 9s 5s 16 20 mph 1020.1mb 80f 73f
7:50am 4.5ft 10s 5s 16 18 mph 1019.3mb 80f 73f
6:50am 4.5ft 10s 5s 16 20 mph 1018.3mb 80f 74f
5:50am 4.5ft 10s 5s 16 20 mph 1017.6mb 80f 74f
4:50am 5ft 10s 6s 16 18 mph 1017.3mb 80f 74f
3:50am 4.5ft 10s 5s 11 13 mph 1017mb 80f 74f
2:50am 5ft 10s 6s 11 16 mph 1016.9mb 80f 75f
1:50am 5.5ft 9s 5s 16 20 mph 1017mb 80f 74f
12:50am 6ft 10s 5s 20 25 mph 1017.2mb 80f 75f
Sun 02/07 11:50pm 6ft 10s 6s 18 22 mph 1018.2mb 80f 74f
10:50pm 6.5ft 9s 6s 18 22 mph 1018.8mb 80f 74f
9:50pm 6ft 11s 6s 18 20 mph 1019.4mb 80f 74f
8:50pm 6.5ft 10s 6s 18 20 mph 1019mb 80f 75f
7:50pm 7ft 10s 6s 18 22 mph 1018.4mb 80f 74f
6:50pm 7ft 8s 5s 20 22 mph 1017.8mb 80f 74f
5:50pm 7ft 9s 5s 22 27 mph 1017.3mb 80f 74f
4:50pm 6.5ft 8s 6s 20 25 mph 1017.2mb 80f 75f
3:50pm 7ft 8s 6s 20 25 mph 1016.7mb 80f 75f
2:50pm 7.5ft 8s 6s 22 29 mph 1016.6mb 80f 75f
1:50pm 8ft 8s 6s 25 31 mph 1016.7mb 80f 75f
12:50pm 7ft 7s 5s 25 29 mph 1017.5mb 80f 75f
11:50am 8ft 7s 6s 25 31 mph 1018mb 81f 75f
10:50am 7ft 7s 5s 27 31 mph 1018.7mb 80f 75f
9:50am 7ft 7s 5s 27 31 mph 1019mb 80f 75f
8:50am 7ft 6s 5s 25 31 mph 1018.6mb 80f 76f
7:50am 7ft 6s 5s 25 31 mph 1017.9mb 80f 76f
6:50am 7ft 6s 5s 25 31 mph 1017.2mb 80f 76f
5:50am 6.5ft 6s 5s 25 29 mph 1016.8mb 80f 76f
4:50am 6ft 6s 5s 27 34 mph 1016.2mb 80f 76f
3:50am 7ft 6s 5s 27 31 mph 1016mb 80f 76f
2:50am 6.5ft 6s 5s 29 36 mph 1015.9mb 80f 75f
1:50am 6ft 7s 5s 25 31 mph 1016.3mb 80f 77f
12:50am 7ft 6s 5s 25 29 mph 1016.8mb 80f 77f
Sat 02/06 11:50pm 7ft 6s 5s 25 29 mph 1017.1mb 80f 77f
10:50pm 7ft 6s 5s 25 31 mph 1017.4mb 80f 77f
9:50pm 6ft 6s 5s 25 29 mph 1017.5mb 80f 76f
8:50pm 6ft 5s 5s 27 31 mph 1017.5mb 80f 76f
7:50pm 5ft 11s 5s 25 29 mph 1017.2mb 80f 76f
6:50pm 4.5ft 11s 5s 20 25 mph 1017.1mb 80f 77f
5:50pm 5ft 11s 5s 18 20 mph 1016.6mb 80f 77f
4:50pm 5ft 11s 6s 20 22 mph 1016.5mb 80f 77f
3:50pm 5ft 11s 6s 18 20 mph 1016.1mb 80f 77f
2:50pm 5.5ft 11s 6s 18 20 mph 1016.2mb 80f 76f
1:50pm 6ft 11s 6s 16 20 mph 1016.6mb 80f 76f
12:50pm 5.5ft 11s 6s 16 20 mph 1017.1mb 80f 76f
11:50am 5.5ft 11s 6s 13 18 mph 1017.7mb 80f 75f
10:50am 6ft 11s 6s 18 20 mph 1018.4mb 80f 74f
9:50am 6ft 11s 5s 18 25 mph 1018.9mb 80f 74f
8:50am 6ft 11s 6s 20 22 mph 1018.5mb 80f 73f
7:50am 6.5ft 11s 6s 18 20 mph 1017.7mb 80f 75f
6:50am 6.5ft 11s 6s 20 22 mph 1016.8mb 81f 75f
5:50am 6.5ft 11s 6s 20 22 mph 1016.2mb 81f 76f
4:50am 6ft 11s 6s 20 25 mph 1015.6mb 81f 76f
3:50am 6ft 11s 6s 18 20 mph 1015.2mb 81f 76f
2:50am 7ft 11s 6s 20 25 mph 1015.2mb 81f 76f
1:50am 7ft 11s 6s 20 22 mph 1015.5mb 81f 76f
12:50am 7ft 11s 6s 20 25 mph 1015.8mb 81f 77f
Fri 02/05 11:50pm 7.5ft 11s 6s 20 25 mph 1016.4mb 81f 77f
10:50pm 7ft 11s 6s 20 25 mph 1017.2mb 81f 77f
9:50pm 8ft 11s 6s 22 27 mph 1017.6mb 81f 77f
8:50pm 8ft 11s 6s 22 27 mph 1017.5mb 81f 76f
7:50pm 8ft 11s 6s 22 27 mph 1017.4mb 81f 76f
6:50pm 8ft 11s 6s 22 27 mph 1016.9mb 81f 76f
5:50pm 8ft 11s 6s 22 27 mph 1016.6mb 81f 76f
4:50pm 8.5ft 11s 6s 20 27 mph 1016.6mb 81f 75f
3:50pm 8.5ft 11s 6s 20 25 mph 1016.3mb 81f 76f
2:50pm 9ft 11s 6s 25 27 mph 1016mb 81f 75f
1:50pm 9ft 11s 6s 25 29 mph 1016mb 81f 77f
12:50pm 10ft 12s 7s 25 29 mph 1016.4mb 81f 76f
11:50am 11ft 11s 7s 27 31 mph 1017.2mb 81f 76f
10:50am 11.5ft 8s 7s 25 29 mph 1018.2mb 81f 77f
9:50am 10ft 8s 6s 27 31 mph 1018.4mb 81f 78f
8:50am 6.5ft 8s 5s 27 31 mph 1018.3mb 81f 77f
7:50am 3.5ft 7s 4s 29 34 mph 1017.6mb 80f 74f
6:50am 3ft 8s 5s 20 29 mph 1017.1mb 81f 80f
5:50am 3.5ft 8s 5s 7 9 mph 1016.8mb 81f 80f
4:50am 3ft 8s 5s 4
mph
1016.4mb 81f 79f
3:50am 3.5ft 7s 5s 4
mph
1016mb 81f 79f
2:50am 3.5ft 7s 5s 9
mph
1016.2mb 81f 79f
1:50am 3.5ft 7s 5s 9 11 mph 1016.6mb 81f 79f
12:50am 3.5ft 7s 5s 9 11 mph 1016.9mb 81f 79f
Thu 02/04 11:50pm 3.5ft 7s 5s 13 18 mph 1017mb 81f 80f
10:50pm 3.5ft 7s 5s 13
mph
1017.3mb 81f 80f
9:50pm 3.5ft 7s 6s 11 13 mph 1017mb 81f 80f
8:50pm 3.5ft 7s 5s 7 9 mph 1017mb 81f 80f
7:50pm 4ft 6s 6s 4 7 mph 1016.6mb 81f 80f
6:50pm 4ft 6s 6s 2 4 mph 1016mb 81f 80f
5:50pm 4.5ft 7s 6s 2 4 mph 1015.5mb 81f 80f